Shaoyang, China
Current Conditions -  °F | °C
As of 2:00 AM on Sunday 26 Oct 2014 (Local Time) from ZGHA Reporting Station
Haze Haze  
Wind Chill: 61°   Ceiling: Unl
Heat Index: 61°   Visibility: 3mi
Dew Point: 57°   Wind: 4mph
Humidity: 88%   Direction: 50°NE
Pressure: 30"   Gusts: NA
Location:  27.23°N, 111.47°E
Report Text: ZGHA 251800Z 05002MPS 360V090 5000 BR NSC 16/14 Q1016 NOSIG
Loading
Personal Weather Stations






























Interactive Weather Map
Tropical Storm Tracking
New forecast layout! Learn more

10-Day Weather Forecast

Advertisements
Track Severe Weather on mobile